Time;durP1;ratioP1;P1;durP2;ratioP2;P2;SDS_P1;SDS_P2;PMS_P1;PMS_P2;Temp;Humidity;BMP_temperature;BMP_pressure;BME280_temperature;BME280_humidity;BME280_pressure;Samples;Min_cycle;Max_cycle;Signal;HPM_P1;HPM_P2
2021/04/03 00:01:22;;;;;;;33.97;5.90;;;2.00;99.90;;;;;;5015234;28;20026;-79
2021/04/03 00:03:48;;;;;;;38.83;6.30;;;1.90;99.90;;;;;;5013247;28;20064;-79
2021/04/03 00:06:13;;;;;;;28.58;6.50;;;1.90;99.90;;;;;;5012636;28;20038;-79
2021/04/03 00:08:39;;;;;;;36.03;6.70;;;1.80;99.90;;;;;;5013634;28;20026;-79
2021/04/03 00:11:06;;;;;;;56.55;7.78;;;1.90;99.90;;;;;;5015080;28;20080;-78
2021/04/03 00:13:42;;;;;;;46.65;7.38;;;1.90;99.90;;;;;;5015428;28;20029;-79
2021/04/03 00:16:10;;;;;;;68.07;7.80;;;1.90;99.90;;;;;;5013773;28;20026;-79
2021/04/03 00:18:35;;;;;;;44.65;8.35;;;1.90;99.90;;;;;;5013356;28;20026;-79
2021/04/03 00:21:01;;;;;;;58.20;8.93;;;1.90;99.90;;;;;;5013163;28;20043;-79
2021/04/03 00:23:27;;;;;;;58.78;7.80;;;1.90;99.90;;;;;;5011507;28;20157;-79
2021/04/03 00:25:52;;;;;;;56.15;8.57;;;1.90;99.90;;;;;;5013035;28;20179;-79
2021/04/03 00:28:19;;;;;;;42.35;8.57;;;1.80;99.90;;;;;;5014693;28;20034;-79
2021/04/03 00:30:44;;;;;;;44.80;6.22;;;1.80;99.90;;;;;;5014732;28;20422;-79
2021/04/03 00:33:10;;;;;;;43.33;7.60;;;1.80;99.90;;;;;;5014476;28;20025;-78
2021/04/03 00:35:39;;;;;;;34.10;6.78;;;1.80;99.90;;;;;;5014126;28;20409;-79
2021/04/03 00:38:06;;;;;;;43.45;6.18;;;1.80;99.90;;;;;;5012101;28;20030;-79
2021/04/03 00:40:34;;;;;;;42.28;7.90;;;1.70;99.90;;;;;;5013557;28;20034;-79
2021/04/03 00:43:06;;;;;;;48.70;7.60;;;1.70;99.90;;;;;;5014394;28;20022;-79
2021/04/03 00:45:32;;;;;;;53.08;7.13;;;1.70;99.90;;;;;;5013658;28;20382;-79
2021/04/03 00:47:58;;;;;;;39.60;6.78;;;1.70;99.90;;;;;;5012893;28;20112;-79
2021/04/03 00:50:35;;;;;;;47.58;6.88;;;1.60;99.90;;;;;;5012212;28;20029;-79
2021/04/03 00:53:02;;;;;;;32.50;6.18;;;1.50;99.90;;;;;;5013854;28;20031;-79
2021/04/03 00:55:28;;;;;;;27.08;7.00;;;1.30;99.90;;;;;;5011251;28;20022;-79
2021/04/03 00:57:54;;;;;;;40.08;6.53;;;1.10;99.90;;;;;;5013175;28;20026;-79
2021/04/03 01:00:20;;;;;;;26.20;5.43;;;1.00;99.90;;;;;;5012711;28;20017;-79
2021/04/03 01:02:46;;;;;;;28.38;5.30;;;0.80;99.90;;;;;;5013085;28;20506;-79
2021/04/03 01:05:15;;;;;;;36.63;7.32;;;0.70;99.90;;;;;;5013195;28;20029;-78
2021/04/03 01:07:41;;;;;;;30.42;5.20;;;0.60;99.90;;;;;;5011842;28;20406;-79
2021/04/03 01:10:07;;;;;;;24.05;5.15;;;0.60;99.90;;;;;;5011382;28;20041;-78
2021/04/03 01:12:42;;;;;;;27.77;6.82;;;0.40;99.90;;;;;;5013433;28;20018;-78
2021/04/03 01:15:16;;;;;;;33.78;5.53;;;0.40;99.90;;;;;;5013063;28;20501;-78
2021/04/03 01:17:56;;;;;;;32.05;6.30;;;0.20;99.90;;;;;;5013760;28;20030;-79
2021/04/03 01:20:40;;;;;;;24.50;5.53;;;0.20;99.90;;;;;;5011321;28;20566;-79
2021/04/03 01:23:51;;;;;;;27.80;5.80;;;0.10;99.90;;;;;;5024908;28;20038;-78
2021/04/03 01:26:39;;;;;;;40.53;7.05;;;0.10;99.90;;;;;;5009848;28;20105;-79
2021/04/03 01:29:22;;;;;;;27.25;5.70;;;0.00;99.90;;;;;;5013400;28;20037;-79
2021/04/03 01:31:49;;;;;;;30.50;5.55;;;-0.10;99.90;;;;;;5013437;28;20422;-78
2021/04/03 01:34:22;;;;;;;49.22;7.85;;;-0.10;99.90;;;;;;5012892;28;20168;-78
2021/04/03 01:36:48;;;;;;;29.45;6.60;;;0.30;99.90;;;;;;5011780;28;20018;-78
2021/04/03 01:39:18;;;;;;;28.58;5.72;;;0.40;99.90;;;;;;5010290;28;20030;-78
2021/04/03 01:41:46;;;;;;;24.58;5.55;;;0.40;99.90;;;;;;5001471;28;20033;-78
2021/04/03 01:44:17;;;;;;;33.78;7.00;;;0.30;99.90;;;;;;4993142;28;20041;-78
2021/04/03 01:46:44;;;;;;;14.68;5.68;;;0.20;99.90;;;;;;5025253;28;20561;-78
2021/04/03 01:49:13;;;;;;;19.10;5.65;;;0.00;99.90;;;;;;5011746;28;20046;-78
2021/04/03 01:51:44;;;;;;;33.13;5.65;;;-0.10;99.90;;;;;;5010969;28;20088;-79
2021/04/03 01:54:11;;;;;;;18.98;5.93;;;-0.20;99.90;;;;;;5009869;28;20018;-78
2021/04/03 01:56:37;;;;;;;28.55;6.25;;;-0.20;99.90;;;;;;5012818;28;20424;-78
2021/04/03 01:59:07;;;;;;;20.08;6.00;;;-0.20;99.90;;;;;;5011423;28;20053;-78
2021/04/03 02:01:38;;;;;;;30.65;5.85;;;-0.30;99.90;;;;;;5012970;28;20033;-78
2021/04/03 02:04:06;;;;;;;17.25;5.13;;;-0.30;99.90;;;;;;5009246;28;20092;-78
2021/04/03 02:06:33;;;;;;;31.17;6.40;;;-0.40;99.90;;;;;;5009750;28;20121;-78
2021/04/03 02:09:00;;;;;;;24.73;6.15;;;-0.40;99.90;;;;;;5009679;28;20100;-78
2021/04/03 02:11:27;;;;;;;29.55;6.72;;;-0.40;99.90;;;;;;5012662;28;20118;-78
2021/04/03 02:13:54;;;;;;;52.80;7.30;;;-0.40;99.90;;;;;;5010665;28;20443;-78
2021/04/03 02:16:21;;;;;;;29.75;6.88;;;-0.30;99.90;;;;;;5012731;28;20034;-79
2021/04/03 02:18:48;;;;;;;28.63;6.97;;;-0.10;99.90;;;;;;5012642;28;20072;-78
2021/04/03 02:21:13;;;;;;;35.42;6.55;;;-0.10;99.90;;;;;;5011603;28;20042;-78
2021/04/03 02:23:39;;;;;;;22.52;6.00;;;-0.10;99.90;;;;;;5010705;28;20391;-78
2021/04/03 02:26:05;;;;;;;26.38;5.82;;;-0.20;99.90;;;;;;5011918;28;20431;-79
2021/04/03 02:28:33;;;;;;;21.23;6.05;;;-0.30;99.90;;;;;;5012437;28;20034;-78
2021/04/03 02:30:59;;;;;;;28.25;5.97;;;-0.30;99.90;;;;;;5011356;28;20058;-78
2021/04/03 02:33:24;;;;;;;26.77;7.20;;;-0.20;99.90;;;;;;5011575;28;20525;-78
2021/04/03 02:35:50;;;;;;;30.08;6.88;;;0.00;99.90;;;;;;5009140;28;20025;-78
2021/04/03 02:38:17;;;;;;;32.85;8.32;;;0.00;99.90;;;;;;5011365;28;20033;-78
2021/04/03 02:40:43;;;;;;;27.60;7.38;;;0.00;99.90;;;;;;5011599;28;20026;-78
2021/04/03 02:43:24;;;;;;;23.63;6.50;;;-0.20;99.90;;;;;;5011554;28;20401;-78
2021/04/03 02:46:15;;;;;;;23.48;6.20;;;-0.30;99.90;;;;;;5011229;28;20605;-78
2021/04/03 02:48:47;;;;;;;32.10;6.25;;;-0.40;99.90;;;;;;5009812;28;20053;-77
2021/04/03 02:51:14;;;;;;;28.75;6.53;;;-0.50;99.90;;;;;;5011230;28;20021;-78
2021/04/03 02:53:41;;;;;;;31.80;7.43;;;-0.60;99.90;;;;;;5010319;28;20066;-77
2021/04/03 02:56:08;;;;;;;17.83;5.80;;;-0.70;99.90;;;;;;5010368;28;20074;-79
2021/04/03 02:58:36;;;;;;;17.67;6.43;;;-0.70;99.90;;;;;;5011141;28;20022;-78
2021/04/03 03:01:02;;;;;;;28.63;6.70;;;-0.80;99.90;;;;;;5010953;28;20502;-78
2021/04/03 03:03:32;;;;;;;23.88;6.30;;;-0.80;99.90;;;;;;5012055;28;20032;-78
2021/04/03 03:05:59;;;;;;;23.38;6.70;;;-0.80;99.90;;;;;;5010469;28;20049;-78
2021/04/03 03:08:27;;;;;;;25.67;7.28;;;-0.80;99.90;;;;;;5008518;28;20022;-78
2021/04/03 03:10:54;;;;;;;23.98;7.05;;;-0.70;99.90;;;;;;5009678;28;20121;-78
2021/04/03 03:13:20;;;;;;;29.55;6.28;;;-0.70;99.90;;;;;;5011965;28;20029;-78
2021/04/03 03:15:46;;;;;;;31.08;6.47;;;-0.80;99.90;;;;;;5011137;28;20029;-78
2021/04/03 03:18:13;;;;;;;27.88;7.55;;;-0.80;99.90;;;;;;5008516;28;20473;-78
2021/04/03 03:20:41;;;;;;;21.52;6.60;;;-0.70;99.90;;;;;;5010880;28;20136;-78
2021/04/03 03:23:07;;;;;;;13.93;6.43;;;-0.70;99.90;;;;;;5010883;28;20038;-78
2021/04/03 03:25:33;;;;;;;35.83;6.18;;;-0.80;99.90;;;;;;5010188;28;20034;-79
2021/04/03 03:28:00;;;;;;;18.10;5.72;;;-0.80;99.90;;;;;;5011696;28;20049;-78
2021/04/03 03:30:27;;;;;;;22.92;6.10;;;-0.90;99.90;;;;;;5011625;28;20026;-78
2021/04/03 03:32:54;;;;;;;21.25;5.50;;;-0.90;99.90;;;;;;5010757;28;20032;-78
2021/04/03 03:35:20;;;;;;;30.73;7.15;;;-1.00;99.90;;;;;;5010986;28;20049;-79
2021/04/03 03:37:47;;;;;;;37.22;10.25;;;-1.10;99.90;;;;;;5010823;28;20493;-78
2021/04/03 03:40:14;;;;;;;34.80;7.45;;;-1.10;99.90;;;;;;5010557;28;20117;-79
2021/04/03 03:42:41;;;;;;;34.15;6.90;;;-1.00;99.90;;;;;;5010091;28;20386;-78
2021/04/03 03:45:08;;;;;;;19.98;5.47;;;-1.00;99.90;;;;;;5010790;28;20026;-78
2021/04/03 03:47:33;;;;;;;27.42;6.95;;;-1.00;99.90;;;;;;5011312;28;20057;-78
2021/04/03 03:49:59;;;;;;;17.58;5.85;;;-1.10;99.90;;;;;;5009627;28;20066;-78
2021/04/03 03:52:25;;;;;;;12.80;4.78;;;-1.20;99.90;;;;;;5009402;28;20026;-78
2021/04/03 03:54:50;;;;;;;29.98;5.45;;;-1.30;99.90;;;;;;5009822;28;20081;-78
2021/04/03 03:57:16;;;;;;;26.25;7.30;;;-1.40;99.90;;;;;;5011272;28;20096;-78
2021/04/03 03:59:42;;;;;;;34.42;7.80;;;-1.30;99.90;;;;;;5011276;28;20109;-78
2021/04/03 04:02:07;;;;;;;19.55;6.75;;;-1.00;99.90;;;;;;5011233;28;20076;-78
2021/04/03 04:04:33;;;;;;;27.40;7.03;;;-0.90;99.90;;;;;;5009832;28;20068;-78
2021/04/03 04:06:58;;;;;;;18.80;6.20;;;-0.80;99.90;;;;;;5011492;28;20081;-78
2021/04/03 04:09:25;;;;;;;19.25;5.80;;;-0.90;99.90;;;;;;5009329;28;20601;-78
2021/04/03 04:11:51;;;;;;;14.75;5.50;;;-1.00;99.90;;;;;;5009929;28;20030;-78
2021/04/03 04:14:16;;;;;;;36.58;6.18;;;-1.20;99.90;;;;;;5010689;28;20033;-78
2021/04/03 04:16:43;;;;;;;30.38;6.82;;;-1.20;99.90;;;;;;5011056;28;20030;-78
2021/04/03 04:19:09;;;;;;;26.45;7.07;;;-1.30;99.90;;;;;;4991550;28;20019;-78
2021/04/03 04:21:34;;;;;;;25.35;6.03;;;-1.30;99.90;;;;;;4996609;28;20034;-77
2021/04/03 04:24:00;;;;;;;25.35;6.25;;;-1.40;99.90;;;;;;5007674;28;20045;-77
2021/04/03 04:26:25;;;;;;;28.85;7.00;;;-1.40;99.90;;;;;;5010903;28;20018;-78
2021/04/03 04:28:51;;;;;;;15.98;5.32;;;-1.50;99.90;;;;;;5009891;28;20550;-78
2021/04/03 04:31:17;;;;;;;25.33;8.05;;;-1.50;99.90;;;;;;5013751;28;20496;-78
2021/04/03 04:33:42;;;;;;;27.40;6.68;;;-1.40;99.90;;;;;;5014050;28;20030;-78
2021/04/03 04:36:08;;;;;;;25.73;7.63;;;-1.30;99.90;;;;;;5011707;28;20371;-78
2021/04/03 04:38:33;;;;;;;27.73;6.63;;;-1.20;99.90;;;;;;5012324;28;20022;-78
2021/04/03 04:40:59;;;;;;;24.77;6.38;;;-1.20;99.90;;;;;;5013374;28;20061;-78
2021/04/03 04:43:25;;;;;;;24.98;6.57;;;-1.30;99.90;;;;;;5014530;28;20084;-78
2021/04/03 04:45:51;;;;;;;31.92;8.15;;;-1.40;99.90;;;;;;5013694;28;20101;-78
2021/04/03 04:48:17;;;;;;;35.42;8.32;;;-1.40;99.90;;;;;;5012895;28;20122;-77
2021/04/03 04:50:43;;;;;;;30.77;9.23;;;-1.40;99.90;;;;;;5013467;28;20421;-78
2021/04/03 04:53:09;;;;;;;24.63;6.90;;;-1.10;99.90;;;;;;5013464;28;20105;-78
2021/04/03 04:55:35;;;;;;;26.95;8.00;;;-0.80;99.90;;;;;;5012613;28;20026;-78
2021/04/03 04:58:00;;;;;;;29.67;7.75;;;-0.70;99.90;;;;;;5012940;28;20022;-78
2021/04/03 05:00:26;;;;;;;30.90;7.93;;;-0.70;99.90;;;;;;5014208;28;20033;-78
2021/04/03 05:02:52;;;;;;;19.77;8.60;;;-0.70;99.90;;;;;;5014061;28;20085;-78
2021/04/03 05:05:18;;;;;;;26.67;6.40;;;-0.60;99.90;;;;;;5011222;28;20486;-78
2021/04/03 05:07:43;;;;;;;23.42;6.55;;;-0.60;99.90;;;;;;5012715;28;20482;-77
2021/04/03 05:10:11;;;;;;;17.65;6.65;;;-0.70;99.90;;;;;;5012075;28;20030;-78
2021/04/03 05:12:36;;;;;;;43.28;8.75;;;-0.80;99.90;;;;;;5012840;28;20105;-78
2021/04/03 05:15:02;;;;;;;31.10;7.93;;;-0.70;99.90;;;;;;5013326;28;20108;-77
2021/04/03 05:17:28;;;;;;;20.35;6.72;;;-0.60;99.90;;;;;;5013982;28;20065;-77
2021/04/03 05:19:53;;;;;;;29.27;8.23;;;-0.60;99.90;;;;;;5013790;28;20025;-78
2021/04/03 05:22:19;;;;;;;19.67;7.15;;;-0.60;99.90;;;;;;5010286;28;20113;-77
2021/04/03 05:24:45;;;;;;;26.60;8.07;;;-0.60;99.90;;;;;;5008405;28;20171;-78
2021/04/03 05:27:10;;;;;;;27.13;7.57;;;-0.60;99.90;;;;;;5013987;28;20030;-78
2021/04/03 05:29:36;;;;;;;24.52;6.82;;;-0.60;99.90;;;;;;5014373;28;20406;-78
2021/04/03 05:32:01;;;;;;;22.45;7.60;;;-0.60;99.90;;;;;;5013772;28;20492;-78
2021/04/03 05:34:27;;;;;;;25.30;7.63;;;-0.60;99.90;;;;;;5012933;28;20080;-77
2021/04/03 05:36:53;;;;;;;35.40;7.88;;;-0.60;99.90;;;;;;5012546;28;20426;-78
2021/04/03 05:39:18;;;;;;;33.28;8.40;;;-0.60;99.90;;;;;;5009388;28;20106;-78
2021/04/03 05:41:44;;;;;;;37.28;8.02;;;-0.60;99.90;;;;;;5013216;28;20104;-78
2021/04/03 05:44:10;;;;;;;32.90;7.65;;;-0.50;99.90;;;;;;5012899;28;20457;-78
2021/04/03 05:46:41;;;;;;;30.20;8.85;;;-0.50;99.90;;;;;;5013252;28;20398;-77
2021/04/03 05:49:07;;;;;;;20.70;7.38;;;-0.40;99.90;;;;;;5013017;28;20132;-77
2021/04/03 05:51:33;;;;;;;18.90;6.20;;;-0.40;99.90;;;;;;5012211;28;20117;-78
2021/04/03 05:54:03;;;;;;;20.95;8.10;;;-0.40;99.90;;;;;;5008489;28;20030;-78
2021/04/03 05:56:29;;;;;;;27.75;7.63;;;-0.40;99.90;;;;;;5012954;28;20022;-78
2021/04/03 05:58:55;;;;;;;36.22;8.60;;;-0.30;99.90;;;;;;5011647;28;20025;-78
2021/04/03 06:01:21;;;;;;;32.00;8.07;;;-0.20;99.90;;;;;;5012899;28;20509;-78
2021/04/03 06:03:47;;;;;;;27.75;8.00;;;0.10;99.90;;;;;;5012235;28;20084;-78
2021/04/03 06:06:13;;;;;;;24.15;7.57;;;0.20;99.90;;;;;;5012977;28;20021;-78
2021/04/03 06:08:39;;;;;;;28.73;7.57;;;0.20;99.90;;;;;;5010857;28;20447;-78
2021/04/03 06:11:16;;;;;;;18.70;7.25;;;0.40;99.90;;;;;;5011581;28;20029;-78
2021/04/03 06:14:02;;;;;;;32.35;8.25;;;0.50;99.90;;;;;;5012313;28;20018;-78
2021/04/03 06:16:36;;;;;;;23.88;7.35;;;0.70;99.90;;;;;;5005737;28;20026;-79
2021/04/03 06:19:12;;;;;;;32.22;7.22;;;0.80;99.90;;;;;;5012580;28;20029;-78
2021/04/03 06:21:38;;;;;;;28.35;8.27;;;0.90;99.90;;;;;;5011928;28;20509;-79
2021/04/03 06:24:22;;;;;;;28.17;7.25;;;1.10;99.90;;;;;;5006855;28;20034;-79
2021/04/03 06:26:52;;;;;;;24.27;7.78;;;1.20;99.90;;;;;;5001873;28;20060;-79
2021/04/03 06:29:38;;;;;;;24.55;7.32;;;1.30;99.90;;;;;;5012413;28;20034;-78
2021/04/03 06:32:08;;;;;;;31.02;8.05;;;1.50;99.90;;;;;;5012287;28;20026;-79
2021/04/03 06:34:39;;;;;;;28.42;7.38;;;1.50;99.90;;;;;;5010730;28;20026;-78
2021/04/03 06:37:09;;;;;;;19.27;7.03;;;1.60;99.90;;;;;;5011667;28;20033;-78
2021/04/03 06:40:05;;;;;;;20.02;8.00;;;1.80;99.90;;;;;;5009651;28;20030;-78
2021/04/03 06:42:43;;;;;;;30.02;7.07;;;1.90;99.90;;;;;;5011065;28;20030;-78
2021/04/03 06:45:18;;;;;;;27.45;6.32;;;2.20;99.90;;;;;;5010217;28;20018;-78
2021/04/03 06:47:48;;;;;;;17.95;5.97;;;2.20;99.90;;;;;;5012052;28;20030;-78
2021/04/03 06:50:15;;;;;;;15.40;6.93;;;2.40;99.90;;;;;;5010992;28;20069;-79
2021/04/03 06:52:42;;;;;;;21.67;6.65;;;2.50;99.90;;;;;;5009650;28;20022;-80
2021/04/03 06:55:16;;;;;;;22.10;6.57;;;2.70;99.90;;;;;;5008382;28;20048;-78
2021/04/03 06:57:43;;;;;;;23.20;5.90;;;2.90;99.90;;;;;;5010642;28;20030;-78
2021/04/03 07:00:10;;;;;;;19.38;5.55;;;3.10;99.90;;;;;;5010686;28;20033;-78
2021/04/03 07:02:57;;;;;;;22.90;7.75;;;3.20;99.90;;;;;;5009934;28;20060;-79
2021/04/03 07:05:25;;;;;;;24.92;6.07;;;3.30;99.90;;;;;;5002905;28;20091;-79
2021/04/03 07:07:54;;;;;;;21.20;6.35;;;3.50;99.90;;;;;;5010572;28;20030;-79
2021/04/03 07:10:20;;;;;;;13.43;6.35;;;3.70;99.90;;;;;;5009680;28;20041;-78
2021/04/03 07:12:47;;;;;;;16.17;6.03;;;4.00;99.90;;;;;;5011618;28;20394;-79
2021/04/03 07:15:13;;;;;;;21.90;6.43;;;4.20;99.90;;;;;;5008973;28;20057;-78
2021/04/03 07:17:41;;;;;;;14.88;4.97;;;4.30;99.90;;;;;;5011615;28;20083;-77
2021/04/03 07:20:14;;;;;;;13.18;4.80;;;4.50;99.90;;;;;;5011690;28;20084;-77
2021/04/03 07:22:44;;;;;;;13.98;4.97;;;4.70;99.90;;;;;;5011482;28;20204;-77
2021/04/03 07:25:11;;;;;;;14.13;4.45;;;4.80;99.90;;;;;;5008226;28;20026;-77
2021/04/03 07:27:40;;;;;;;11.20;3.97;;;5.00;99.90;;;;;;5011279;28;20112;-78
2021/04/03 07:30:06;;;;;;;18.98;4.40;;;5.10;99.90;;;;;;5011230;28;20552;-78
2021/04/03 07:32:33;;;;;;;10.38;3.38;;;5.20;99.90;;;;;;5010868;28;20030;-76
2021/04/03 07:35:00;;;;;;;12.05;4.63;;;5.40;99.90;;;;;;5010877;28;20080;-78
2021/04/03 07:37:32;;;;;;;12.52;4.03;;;5.80;99.90;;;;;;5009510;28;20056;-78
2021/04/03 07:39:58;;;;;;;10.85;3.70;;;6.00;99.90;;;;;;5009581;28;20034;-78
2021/04/03 07:42:35;;;;;;;15.50;3.42;;;6.20;99.90;;;;;;5011429;28;20033;-78
2021/04/03 07:45:01;;;;;;;10.38;3.80;;;6.40;99.90;;;;;;5009347;28;20037;-78
2021/04/03 07:47:27;;;;;;;10.90;3.75;;;6.60;99.90;;;;;;5011180;28;20044;-78
2021/04/03 07:49:54;;;;;;;13.45;4.50;;;6.80;99.90;;;;;;5002873;28;20038;-79
2021/04/03 07:52:56;;;;;;;12.52;3.67;;;6.90;99.90;;;;;;5007028;28;20387;-79
2021/04/03 07:55:32;;;;;;;11.60;3.28;;;7.10;99.90;;;;;;5005648;28;20022;-78
2021/04/03 07:58:19;;;;;;;15.02;3.45;;;7.20;99.90;;;;;;5011085;28;20470;-77
2021/04/03 08:00:48;;;;;;;6.90;3.22;;;7.60;99.90;;;;;;5010243;28;20036;-78
2021/04/03 08:03:24;;;;;;;21.73;3.47;;;7.70;99.90;;;;;;5009772;28;20394;-80
2021/04/03 08:05:58;;;;;;;12.02;2.97;;;7.90;99.90;;;;;;5010751;28;20105;-77
2021/04/03 08:08:24;;;;;;;21.00;3.10;;;8.10;99.90;;;;;;5013463;28;20032;-76
2021/04/03 08:11:11;;;;;;;12.77;2.92;;;8.20;99.90;;;;;;5012742;28;20034;-77
2021/04/03 08:13:52;;;;;;;8.60;2.65;;;8.30;99.90;;;;;;5014686;28;20100;-78
2021/04/03 08:16:19;;;;;;;10.05;3.05;;;8.50;99.90;;;;;;5014954;28;20030;-78
2021/04/03 08:18:47;;;;;;;7.32;1.95;;;8.70;99.90;;;;;;5013467;28;20171;-76
2021/04/03 08:21:13;;;;;;;10.70;2.67;;;8.90;99.90;;;;;;5013990;28;20116;-77
2021/04/03 08:23:57;;;;;;;13.20;3.70;;;9.20;99.90;;;;;;5013718;28;20030;-79
2021/04/03 08:26:25;;;;;;;6.20;2.60;;;9.50;99.90;;;;;;5011405;28;20052;-78
2021/04/03 08:28:52;;;;;;;10.38;2.67;;;9.50;99.90;;;;;;5014691;28;20144;-79
2021/04/03 08:31:20;;;;;;;6.07;2.63;;;9.40;99.90;;;;;;5013087;28;20422;-79
2021/04/03 08:33:48;;;;;;;5.45;2.10;;;9.50;99.90;;;;;;5011947;28;20018;-79
2021/04/03 08:36:41;;;;;;;6.90;1.95;;;9.60;99.90;;;;;;5013876;28;20100;-79
2021/04/03 08:39:09;;;;;;;3.80;1.67;;;9.60;99.90;;;;;;5005613;28;20777;-79
2021/04/03 08:41:36;;;;;;;4.43;1.92;;;9.80;99.90;;;;;;5012958;28;20022;-79
2021/04/03 08:44:14;;;;;;;6.25;1.80;;;10.10;99.90;;;;;;5005537;28;20041;-80
2021/04/03 08:46:41;;;;;;;6.50;1.88;;;10.00;99.90;;;;;;5010291;28;20026;-79
2021/04/03 08:49:07;;;;;;;4.25;1.15;;;10.10;99.90;;;;;;5010219;28;20053;-79
2021/04/03 08:51:34;;;;;;;7.75;1.67;;;10.10;99.90;;;;;;5009486;28;20022;-79
2021/04/03 08:54:00;;;;;;;10.45;1.80;;;10.20;99.90;;;;;;5007020;28;20080;-79
2021/04/03 08:56:33;;;;;;;3.85;1.40;;;10.60;99.90;;;;;;5004978;28;20036;-79
2021/04/03 08:59:01;;;;;;;3.95;1.52;;;11.00;99.90;;;;;;5008909;28;20121;-79
2021/04/03 09:01:31;;;;;;;5.43;1.40;;;11.30;99.90;;;;;;5008890;28;20394;-79
2021/04/03 09:04:04;;;;;;;4.90;1.60;;;11.40;99.90;;;;;;5006035;28;20088;-79
2021/04/03 09:06:47;;;;;;;4.57;1.27;;;11.20;99.90;;;;;;5008489;28;20069;-78
2021/04/03 09:09:29;;;;;;;4.55;1.30;;;11.20;99.90;;;;;;5008293;28;20116;-79
2021/04/03 09:11:59;;;;;;;10.50;1.80;;;11.20;99.90;;;;;;5005648;28;20482;-79
2021/04/03 09:14:35;;;;;;;5.45;1.45;;;11.40;99.90;;;;;;5007759;28;20026;-79
2021/04/03 09:17:16;;;;;;;3.08;1.33;;;11.50;99.90;;;;;;5010280;28;20026;-79
2021/04/03 09:19:42;;;;;;;2.60;1.30;;;11.40;99.90;;;;;;5013735;28;20018;-79
2021/04/03 09:22:13;;;;;;;5.82;1.30;;;11.30;99.90;;;;;;5009467;28;20376;-79
2021/04/03 09:24:46;;;;;;;7.22;1.55;;;11.30;99.90;;;;;;5008784;28;20018;-78
2021/04/03 09:27:20;;;;;;;2.95;1.27;;;11.30;99.90;;;;;;5013421;28;20108;-78
2021/04/03 09:29:54;;;;;;;6.28;1.33;;;11.50;99.90;;;;;;5013539;28;20494;-78
2021/04/03 09:32:19;;;;;;;;;;;11.90;99.90;;;;;;4998498;28;20489;-77
2021/04/03 09:34:45;;;;;;;4.07;1.75;;;12.20;99.90;;;;;;5010163;28;20056;-77
2021/04/03 09:37:19;;;;;;;4.53;1.27;;;12.40;99.90;;;;;;5028181;28;20398;-78
2021/04/03 09:39:48;;;;;;;3.25;1.50;;;12.30;99.90;;;;;;5011394;28;20030;-78
2021/04/03 09:42:17;;;;;;;4.07;0.93;;;12.30;99.90;;;;;;5013346;28;20104;-78
2021/04/03 09:44:43;;;;;;;7.38;1.67;;;12.10;94.90;;;;;;5011491;28;20021;-78
2021/04/03 09:47:09;;;;;;;5.68;1.30;;;12.00;95.10;;;;;;5011693;28;20018;-78
2021/04/03 09:49:35;;;;;;;2.75;1.15;;;12.10;90.40;;;;;;5011324;28;20033;-77
2021/04/03 09:52:02;;;;;;;3.88;1.25;;;12.50;91.00;;;;;;5011801;28;20085;-77
2021/04/03 09:54:28;;;;;;;2.33;1.27;;;12.80;96.90;;;;;;5009551;28;20022;-77
2021/04/03 09:56:53;;;;;;;2.28;1.30;;;13.00;95.20;;;;;;5011748;28;20386;-78
2021/04/03 09:59:19;;;;;;;6.72;1.45;;;13.50;99.60;;;;;;5011767;28;20076;-77
2021/04/03 10:01:45;;;;;;;10.18;1.38;;;13.40;79.70;;;;;;5011691;28;20076;-78
2021/04/03 10:04:10;;;;;;;6.93;1.10;;;12.70;80.40;;;;;;5011533;28;20032;-78
2021/04/03 10:06:36;;;;;;;4.72;1.20;;;12.20;78.00;;;;;;5010446;28;20030;-78
2021/04/03 10:09:01;;;;;;;3.35;1.05;;;12.00;90.70;;;;;;5010890;28;20044;-78
2021/04/03 10:11:27;;;;;;;5.05;1.40;;;12.00;90.50;;;;;;5011321;28;20502;-78
2021/04/03 10:13:53;;;;;;;3.33;1.55;;;11.90;83.10;;;;;;5012313;28;20390;-78
2021/04/03 10:16:18;;;;;;;7.53;1.00;;;12.20;94.90;;;;;;5012839;28;20033;-78
2021/04/03 10:18:44;;;;;;;9.02;1.48;;;12.60;90.60;;;;;;5012364;28;20022;-78
2021/04/03 10:21:10;;;;;;;4.05;1.55;;;12.70;89.90;;;;;;5011878;28;20036;-79
2021/04/03 10:23:36;;;;;;;4.88;1.20;;;12.70;85.90;;;;;;5008126;28;20113;-78
2021/04/03 10:26:02;;;;;;;6.95;1.67;;;12.70;77.70;;;;;;5009726;28;20113;-77
2021/04/03 10:28:27;;;;;;;3.95;1.40;;;12.60;83.30;;;;;;5012057;28;20037;-78
2021/04/03 10:30:53;;;;;;;3.22;1.05;;;12.80;90.70;;;;;;5005946;28;20188;-78
2021/04/03 10:33:18;;;;;;;10.23;1.98;;;12.70;86.30;;;;;;5007403;28;20542;-78
2021/04/03 10:35:44;;;;;;;4.15;1.83;;;12.40;84.10;;;;;;5006585;28;20383;-78
2021/04/03 10:38:09;;;;;;;2.53;1.30;;;12.30;85.20;;;;;;5009902;28;20022;-78
2021/04/03 10:40:35;;;;;;;4.82;1.52;;;12.20;85.80;;;;;;5007422;28;20026;-79
2021/04/03 10:43:01;;;;;;;4.35;1.33;;;12.10;85.00;;;;;;5008332;28;20026;-79
2021/04/03 10:45:26;;;;;;;3.78;1.52;;;11.70;86.30;;;;;;5007092;28;20033;-79
2021/04/03 10:47:52;;;;;;;4.75;1.77;;;11.80;90.50;;;;;;5006168;28;20033;-79
2021/04/03 10:50:18;;;;;;;4.88;1.30;;;12.40;85.40;;;;;;5011419;28;20030;-79
2021/04/03 10:52:43;;;;;;;7.50;1.20;;;12.70;81.20;;;;;;5011810;28;20026;-79
2021/04/03 10:55:09;;;;;;;5.85;1.77;;;12.90;90.90;;;;;;5009970;28;20033;-78
2021/04/03 10:57:35;;;;;;;7.53;1.08;;;12.90;89.20;;;;;;5011667;28;20025;-79
2021/04/03 11:00:01;;;;;;;3.92;1.50;;;12.70;84.40;;;;;;5011997;28;20025;-79
2021/04/03 11:02:26;;;;;;;4.07;1.25;;;12.80;85.80;;;;;;5011411;28;20022;-78
2021/04/03 11:04:52;;;;;;;1.73;1.13;;;12.90;88.90;;;;;;5011436;28;20026;-79
2021/04/03 11:07:17;;;;;;;3.28;1.40;;;12.50;75.60;;;;;;5012041;28;20389;-78
2021/04/03 11:09:43;;;;;;;2.13;1.08;;;12.50;83.20;;;;;;5011297;28;20026;-78
2021/04/03 11:12:09;;;;;;;5.55;1.13;;;12.50;87.60;;;;;;5010571;28;20030;-78
2021/04/03 11:14:35;;;;;;;2.75;1.38;;;12.70;87.50;;;;;;5011314;28;20022;-78
2021/04/03 11:17:00;;;;;;;7.57;1.42;;;13.10;93.10;;;;;;5011651;28;20478;-78
2021/04/03 11:19:26;;;;;;;7.32;1.58;;;13.30;77.00;;;;;;5011300;28;20026;-78
2021/04/03 11:21:51;;;;;;;3.38;1.40;;;13.00;82.60;;;;;;5011896;28;20108;-78
2021/04/03 11:24:18;;;;;;;5.90;1.48;;;13.10;85.50;;;;;;5010627;28;20037;-77
2021/04/03 11:26:43;;;;;;;6.22;1.45;;;13.60;89.10;;;;;;5011496;28;20053;-78
2021/04/03 11:29:09;;;;;;;6.38;1.23;;;14.20;78.70;;;;;;5011548;28;20053;-78
2021/04/03 11:31:34;;;;;;;4.25;1.33;;;13.90;74.60;;;;;;5011557;28;20032;-78
2021/04/03 11:34:00;;;;;;;9.73;1.33;;;13.40;79.80;;;;;;5011091;28;20485;-79
2021/04/03 11:36:26;;;;;;;5.25;1.10;;;13.30;90.40;;;;;;5011395;28;20036;-78
2021/04/03 11:38:51;;;;;;;1.25;1.00;;;13.40;75.30;;;;;;5010690;28;20073;-78
2021/04/03 11:41:17;;;;;;;3.03;1.08;;;13.70;88.30;;;;;;5015602;28;20061;-79
2021/04/03 11:43:42;;;;;;;4.00;1.48;;;14.00;74.50;;;;;;5015045;28;20038;-79
2021/04/03 11:46:09;;;;;;;3.28;1.10;;;13.60;71.40;;;;;;5015484;28;20026;-78
2021/04/03 11:48:34;;;;;;;6.53;1.20;;;13.30;77.00;;;;;;5015036;28;20033;-78
2021/04/03 11:51:00;;;;;;;3.17;1.23;;;13.50;76.50;;;;;;5014236;28;20121;-79
2021/04/03 11:53:25;;;;;;;7.30;1.38;;;14.00;72.20;;;;;;5014114;28;20095;-78
2021/04/03 11:55:51;;;;;;;2.85;1.02;;;14.30;76.90;;;;;;5014447;28;20030;-79
2021/04/03 11:58:17;;;;;;;3.60;1.45;;;14.40;72.60;;;;;;5014924;28;20530;-79
2021/04/03 12:00:43;;;;;;;2.55;1.02;;;14.80;73.80;;;;;;5015383;28;20068;-79
2021/04/03 12:03:08;;;;;;;6.32;0.98;;;15.50;80.00;;;;;;5015311;28;20552;-79
2021/04/03 12:05:34;;;;;;;1.80;1.15;;;16.10;72.80;;;;;;5014320;28;20033;-79
2021/04/03 12:07:59;;;;;;;3.63;1.30;;;17.10;59.90;;;;;;5013696;28;20026;-79
2021/04/03 12:10:25;;;;;;;3.42;0.98;;;16.80;54.40;;;;;;5013323;28;20061;-79
2021/04/03 12:12:51;;;;;;;3.65;1.20;;;16.60;56.30;;;;;;5013874;28;20022;-79
2021/04/03 12:15:17;;;;;;;4.57;1.10;;;16.50;56.60;;;;;;5014044;28;20029;-79
2021/04/03 12:17:43;;;;;;;4.80;1.27;;;16.20;55.70;;;;;;5014827;28;20441;-78
2021/04/03 12:20:12;;;;;;;2.75;1.20;;;16.10;58.20;;;;;;5013762;28;20072;-78
2021/04/03 12:22:38;;;;;;;4.93;0.95;;;16.10;58.80;;;;;;5014993;28;20152;-79
2021/04/03 12:25:04;;;;;;;2.00;1.05;;;16.40;58.90;;;;;;5013948;28;20104;-79
2021/04/03 12:27:30;;;;;;;4.00;1.20;;;17.10;55.50;;;;;;5013224;28;20065;-79
2021/04/03 12:29:55;;;;;;;5.20;1.10;;;16.50;52.90;;;;;;5014461;28;20092;-79
2021/04/03 12:32:21;;;;;;;4.95;1.45;;;15.80;57.80;;;;;;5013533;28;20025;-79
2021/04/03 12:34:46;;;;;;;3.15;1.40;;;16.20;51.60;;;;;;5013848;28;20514;-79
2021/04/03 12:37:15;;;;;;;3.45;0.73;;;17.10;52.20;;;;;;5014589;28;20026;-79
2021/04/03 12:39:41;;;;;;;3.30;1.30;;;18.20;55.90;;;;;;5014138;28;20121;-77
2021/04/03 12:42:07;;;;;;;2.05;1.10;;;19.40;51.30;;;;;;5014566;28;20025;-76
2021/04/03 12:44:32;;;;;;;2.90;0.98;;;19.90;46.30;;;;;;5013567;28;20045;-79
2021/04/03 12:46:58;;;;;;;2.22;0.77;;;19.20;44.60;;;;;;5013291;28;20030;-79
2021/04/03 12:49:23;;;;;;;3.03;0.85;;;18.60;46.30;;;;;;5012725;28;20104;-76